メキシコシティ の空港の天気 - METARとTAF

メキシコ・シティ国際空港 ( MMMX / MEX ) - メキシコ メキシコシティ
飛行場実況気象(Metar)
観測時間05/20 17:52 CDT (05/20 22:52 UTC)
風向・風速東 2m/s
視程8050m
天気現象
全天の8割程度の雲 雲底高度 610m
全天の8割程度の雲 雲底高度 6100m
気温28℃
湿度15%
気圧1020hPa
METARMMMX 202252Z 08004KT 5SM BKN020TCU BKN200 28/M01 A3013 NOSIG RMK 8/208 HZY AC
過去の天気等 Google飛行場航空写真 Wunderground天気予報

過去48時間のMETAR

飛行場予報(TAF)
発表時間: 5/20 11:23 CDT (5/20 16:23 UTC)
予報対象時間: 20日13時 CDT ~ 21日19時 CDT
風向・風速南東 3m/s
視程10km以上
全天の4割程度の雲 雲底高度 760m
20日17時 CDT から
風向・風速南東 6m/s
視程10km以上
天気現象周辺で 雷雨
全天の8割程度の積乱雲 雲底高度 610m
20日17時 CDT ~ 20日21時 CDT に一時的に
視程6440m
天気現象雷雨
20日22時 CDT から
風向・風速静穏
視程10km以上
全天の8割程度の雲 雲底高度 6100m
21日8時 CDT から
風向・風速静穏
視程8050m
天気現象煙霧
なし
21日16時 CDT から
風向・風速南西 5m/s
視程10km以上
全天の8割程度の雲 雲底高度 760m
21日17時 CDT から 確率 40% で
視程8050m
天気現象雷雨
全天の8割程度の積乱雲 雲底高度 610m
TAF MMMX 201623Z 2018/2124 14005KT P6SM SCT025 TX29/2021Z TN18/2112Z
FM202200 14012KT 6SM VC TSRA BKN020CB
TEMPO 2022/2102 4SM TSRA
FM210300 00000KT P6SM BKN200
FM211300 00000KT 5SM HZ SKC
FM212100 23010KT P6SM BKN025
PROB40 2122/2124 5SM TSRA BKN020CB